Time;durP1;ratioP1;P1;durP2;ratioP2;P2;SDS_P1;SDS_P2;PMS_P1;PMS_P2;Temp;Humidity;BMP_temperature;BMP_pressure;BME280_temperature;BME280_humidity;BME280_pressure;Samples;Min_cycle;Max_cycle;Signal;HPM_P1;HPM_P2
2023/04/18 00:00:56;;;;;;;8.97;8.13;;;15.20;64.30;;;;;;4193863;28;20161;-65
2023/04/18 00:03:37;;;;;;;11.80;8.95;;;15.10;62.80;;;;;;4192828;28;20121;-65
2023/04/18 00:06:20;;;;;;;13.57;7.55;;;15.10;63.90;;;;;;4193976;28;20060;-64
2023/04/18 00:09:02;;;;;;;8.23;7.43;;;15.10;64.70;;;;;;4194216;28;20716;-65
2023/04/18 00:11:42;;;;;;;7.32;6.30;;;15.10;62.90;;;;;;4193971;28;21578;-65
2023/04/18 00:14:28;;;;;;;7.70;6.97;;;15.10;63.00;;;;;;4194293;28;20051;-65
2023/04/18 00:17:09;;;;;;;8.00;7.18;;;15.00;63.90;;;;;;4193841;28;20174;-65
2023/04/18 00:19:52;;;;;;;9.35;6.88;;;15.00;62.40;;;;;;4194078;28;20060;-65
2023/04/18 00:22:35;;;;;;;8.32;7.07;;;15.00;63.40;;;;;;4192593;28;20054;-65
2023/04/18 00:25:16;;;;;;;7.65;6.97;;;15.00;63.10;;;;;;4194062;28;20051;-65
2023/04/18 00:27:56;;;;;;;7.30;6.68;;;15.00;63.70;;;;;;4192414;28;20056;-65
2023/04/18 00:30:37;;;;;;;7.57;6.78;;;14.90;63.50;;;;;;4192397;28;20047;-65
2023/04/18 00:33:19;;;;;;;7.22;6.35;;;14.90;62.90;;;;;;4193722;28;20071;-65
2023/04/18 00:35:59;;;;;;;8.25;7.10;;;14.90;63.10;;;;;;4193631;28;20063;-65
2023/04/18 00:38:42;;;;;;;7.65;6.85;;;14.90;64.20;;;;;;4194001;28;20056;-65
2023/04/18 00:41:26;;;;;;;9.35;7.22;;;14.90;62.80;;;;;;4187274;28;20048;-66
2023/04/18 00:44:07;;;;;;;8.20;7.35;;;14.90;62.50;;;;;;4176617;28;20055;-65
2023/04/18 00:46:48;;;;;;;10.25;8.13;;;14.90;63.30;;;;;;4176840;28;20823;-65
2023/04/18 00:49:28;;;;;;;9.27;8.02;;;14.90;63.00;;;;;;4179218;28;20056;-65
2023/04/18 00:52:10;;;;;;;9.95;8.95;;;14.80;63.30;;;;;;4176239;28;20048;-65
2023/04/18 00:54:52;;;;;;;9.27;8.35;;;14.80;63.40;;;;;;4176646;28;20807;-65
2023/04/18 00:57:33;;;;;;;10.40;7.68;;;14.80;63.30;;;;;;4176739;28;20403;-65
2023/04/18 01:00:15;;;;;;;9.32;8.43;;;14.80;64.60;;;;;;4189846;28;20732;-66
2023/04/18 01:02:56;;;;;;;;;;;14.80;63.30;;;;;;4193345;28;20430;-65
2023/04/18 01:05:38;;;;;;;9.65;8.25;;;14.80;64.40;;;;;;4192919;28;20473;-66
2023/04/18 01:08:20;;;;;;;10.50;8.07;;;14.70;64.20;;;;;;4192780;28;20194;-65
2023/04/18 01:11:02;;;;;;;10.40;8.10;;;14.70;64.70;;;;;;4192691;28;20075;-65
2023/04/18 01:13:43;;;;;;;9.23;7.90;;;14.70;64.00;;;;;;4192496;28;20525;-65
2023/04/18 01:16:25;;;;;;;10.10;8.15;;;14.70;64.60;;;;;;4191596;28;20109;-65
2023/04/18 01:19:07;;;;;;;11.32;8.93;;;14.70;64.40;;;;;;4192221;28;20059;-65
2023/04/18 01:21:47;;;;;;;10.20;9.15;;;14.70;63.90;;;;;;4192484;28;20826;-64
2023/04/18 01:24:30;;;;;;;9.75;8.30;;;14.60;63.70;;;;;;4191326;28;20052;-65
2023/04/18 01:27:12;;;;;;;10.55;8.38;;;14.60;63.80;;;;;;4192884;28;20055;-65
2023/04/18 01:29:53;;;;;;;10.27;8.85;;;14.60;64.10;;;;;;4191396;28;20055;-65
2023/04/18 01:32:34;;;;;;;10.18;8.77;;;14.60;64.30;;;;;;4192864;28;20059;-65
2023/04/18 01:35:16;;;;;;;13.20;9.30;;;14.60;63.80;;;;;;4192734;28;21151;-65
2023/04/18 01:37:57;;;;;;;12.10;8.15;;;14.60;63.80;;;;;;4191346;28;20506;-65
2023/04/18 01:40:41;;;;;;;10.45;8.13;;;14.60;64.10;;;;;;4192917;28;20067;-64
2023/04/18 01:43:22;;;;;;;9.20;7.90;;;14.50;64.60;;;;;;4191689;28;20450;-65
2023/04/18 01:46:02;;;;;;;10.23;7.57;;;14.50;64.30;;;;;;4191301;28;20104;-65
2023/04/18 01:48:43;;;;;;;9.70;8.68;;;14.50;64.60;;;;;;4192872;28;20063;-65
2023/04/18 01:51:27;;;;;;;10.30;8.13;;;14.50;64.90;;;;;;4192719;28;20483;-65
2023/04/18 01:54:08;;;;;;;9.43;8.45;;;14.50;64.80;;;;;;4191913;28;20075;-64
2023/04/18 01:56:50;;;;;;;8.93;7.55;;;14.50;65.00;;;;;;4191530;28;20051;-64
2023/04/18 01:59:31;;;;;;;9.25;7.65;;;14.50;64.60;;;;;;4191523;28;20182;-64
2023/04/18 02:02:14;;;;;;;8.20;7.35;;;14.50;64.40;;;;;;4191544;28;20051;-64
2023/04/18 02:04:55;;;;;;;8.98;7.47;;;14.50;64.50;;;;;;4191304;28;20407;-64
2023/04/18 02:07:35;;;;;;;8.70;7.80;;;14.50;66.30;;;;;;4189641;28;20063;-65
2023/04/18 02:10:16;;;;;;;7.95;7.15;;;14.50;64.60;;;;;;4202813;28;20059;-65
2023/04/18 02:12:59;;;;;;;;;;;14.50;64.30;;;;;;4192593;28;21142;-65
2023/04/18 02:15:40;;;;;;;;;;;14.50;66.30;;;;;;4190042;28;19930;-65
2023/04/18 02:18:23;;;;;;;9.32;7.00;;;14.40;64.10;;;;;;4191411;28;19928;-65
2023/04/18 02:21:04;;;;;;;9.60;6.07;;;14.40;65.00;;;;;;4192504;28;20101;-64
2023/04/18 02:23:45;;;;;;;9.65;5.88;;;14.40;64.70;;;;;;4191237;28;20052;-64
2023/04/18 02:26:25;;;;;;;8.73;6.25;;;14.40;64.90;;;;;;4192240;28;20478;-66
2023/04/18 02:29:11;;;;;;;6.03;5.53;;;14.30;64.10;;;;;;4177441;28;20053;-65
2023/04/18 02:31:53;;;;;;;6.40;5.80;;;14.40;64.70;;;;;;4180022;28;20048;-65
2023/04/18 02:34:34;;;;;;;6.93;6.00;;;14.30;64.20;;;;;;4195438;28;20059;-64
2023/04/18 02:37:15;;;;;;;6.82;6.10;;;14.30;64.10;;;;;;4195543;28;20055;-65
2023/04/18 02:39:56;;;;;;;6.23;5.63;;;14.30;64.60;;;;;;4195746;28;20052;-64
2023/04/18 02:42:37;;;;;;;9.63;6.07;;;14.40;64.80;;;;;;4199242;28;20413;-69
2023/04/18 02:45:19;;;;;;;6.82;6.22;;;14.30;65.20;;;;;;4193256;28;20094;-65
2023/04/18 02:48:01;;;;;;;7.45;6.72;;;14.30;64.10;;;;;;4195537;28;20055;-65
2023/04/18 02:50:42;;;;;;;5.80;4.88;;;14.30;64.10;;;;;;4194512;28;20121;-68
2023/04/18 02:53:23;;;;;;;7.95;6.03;;;14.30;63.80;;;;;;4194631;28;20047;-68
2023/04/18 02:56:08;;;;;;;6.97;5.88;;;14.30;63.60;;;;;;4194167;28;20141;-69
2023/04/18 02:59:11;;;;;;;5.68;5.18;;;14.30;63.80;;;;;;4195298;28;20098;-68
2023/04/18 03:02:17;;;;;;;6.40;5.80;;;14.30;63.40;;;;;;4182691;28;20395;-69
2023/04/18 03:05:04;;;;;;;6.25;5.68;;;14.30;63.90;;;;;;4178059;28;20086;-69
2023/04/18 03:07:45;;;;;;;6.43;5.68;;;14.30;64.50;;;;;;4177639;28;20542;-69
2023/04/18 03:10:26;;;;;;;6.43;5.93;;;14.30;63.50;;;;;;4178673;28;20526;-68
2023/04/18 03:13:06;;;;;;;7.13;4.40;;;14.30;64.10;;;;;;4178496;28;20203;-69
2023/04/18 03:15:48;;;;;;;5.95;5.35;;;14.30;62.70;;;;;;4166074;28;20060;-69
2023/04/18 03:18:30;;;;;;;6.60;5.82;;;14.30;64.20;;;;;;4177771;28;20048;-69
2023/04/18 03:21:13;;;;;;;5.45;4.90;;;14.20;63.90;;;;;;4178649;28;20051;-69
2023/04/18 03:23:55;;;;;;;5.53;4.95;;;14.30;63.30;;;;;;4194204;28;20046;-69
2023/04/18 03:26:36;;;;;;;6.80;5.57;;;14.30;63.90;;;;;;4194758;28;20502;-70
2023/04/18 03:29:17;;;;;;;6.22;5.63;;;14.20;63.00;;;;;;4177241;28;20506;-70
2023/04/18 03:31:59;;;;;;;5.80;5.20;;;14.20;63.10;;;;;;4184126;28;20047;-69
2023/04/18 03:34:41;;;;;;;5.22;4.72;;;14.20;63.00;;;;;;4176986;28;20103;-69
2023/04/18 03:37:23;;;;;;;5.55;4.80;;;14.20;63.90;;;;;;4178054;28;20066;-69
2023/04/18 03:40:08;;;;;;;6.57;5.97;;;14.20;63.60;;;;;;4187927;28;20403;-69
2023/04/18 03:42:49;;;;;;;5.32;4.70;;;14.20;63.70;;;;;;4201817;28;20055;-70
2023/04/18 03:45:30;;;;;;;6.28;5.65;;;14.20;63.10;;;;;;4193444;28;20449;-70
2023/04/18 03:48:13;;;;;;;5.82;5.18;;;14.20;63.20;;;;;;4190750;28;20063;-70
2023/04/18 03:50:57;;;;;;;6.13;5.07;;;14.20;63.10;;;;;;4176143;28;20130;-69
2023/04/18 03:53:38;;;;;;;6.90;5.53;;;14.20;63.50;;;;;;4176993;28;20060;-69
2023/04/18 03:56:19;;;;;;;5.07;4.57;;;14.20;64.00;;;;;;4177896;28;20073;-69
2023/04/18 03:59:05;;;;;;;5.50;5.00;;;14.20;64.30;;;;;;4176782;28;20122;-69
2023/04/18 04:01:46;;;;;;;6.10;5.50;;;14.10;64.10;;;;;;4181415;28;20063;-69
2023/04/18 04:04:27;;;;;;;6.27;5.40;;;14.10;63.10;;;;;;4194559;28;20051;-69
2023/04/18 04:07:10;;;;;;;;;;;14.10;63.70;;;;;;4192139;28;20298;-69
2023/04/18 04:09:51;;;;;;;5.72;5.22;;;14.10;63.60;;;;;;4194270;28;19931;-69
2023/04/18 04:12:32;;;;;;;5.68;5.07;;;14.10;64.00;;;;;;4192550;28;20051;-69
2023/04/18 04:15:14;;;;;;;6.35;5.65;;;14.10;64.20;;;;;;4193303;28;20117;-69
2023/04/18 04:18:01;;;;;;;6.40;4.65;;;14.10;64.50;;;;;;4193182;28;20047;-69
2023/04/18 04:20:46;;;;;;;7.55;5.78;;;14.10;63.70;;;;;;4193132;28;20090;-69
2023/04/18 04:23:41;;;;;;;5.88;5.00;;;14.00;64.10;;;;;;4164883;28;20102;-69
2023/04/18 04:26:25;;;;;;;6.18;5.57;;;14.10;64.60;;;;;;4176561;28;20126;-69
2023/04/18 04:29:15;;;;;;;5.90;5.40;;;14.10;65.20;;;;;;4179688;28;20055;-69
2023/04/18 04:31:58;;;;;;;5.22;4.82;;;14.10;64.40;;;;;;4192591;28;20055;-69
2023/04/18 04:34:49;;;;;;;6.35;5.75;;;14.00;65.30;;;;;;4192520;28;20054;-68
2023/04/18 04:37:32;;;;;;;;;;;14.00;64.30;;;;;;4192985;28;20047;-69
2023/04/18 04:40:27;;;;;;;6.85;6.07;;;14.00;64.50;;;;;;4192474;28;19928;-68
2023/04/18 04:43:19;;;;;;;10.70;6.80;;;14.00;65.20;;;;;;4177102;28;20191;-69
2023/04/18 04:46:01;;;;;;;6.88;6.03;;;14.00;64.40;;;;;;4175946;28;20048;-69
2023/04/18 04:48:42;;;;;;;6.85;6.18;;;14.00;65.00;;;;;;4177447;28;20059;-69
2023/04/18 04:51:23;;;;;;;11.63;6.93;;;14.00;65.00;;;;;;4193513;28;20173;-69
2023/04/18 04:54:04;;;;;;;10.03;7.70;;;14.00;64.60;;;;;;4170768;28;20046;-65
2023/04/18 04:56:46;;;;;;;7.45;6.45;;;14.00;65.00;;;;;;4192370;28;20421;-64
2023/04/18 04:59:28;;;;;;;8.10;7.30;;;14.00;65.50;;;;;;4193204;28;20051;-65
2023/04/18 05:02:09;;;;;;;9.02;6.63;;;14.00;64.80;;;;;;4192284;28;20193;-65
2023/04/18 05:04:50;;;;;;;9.00;7.68;;;14.00;65.30;;;;;;4192060;28;20051;-64
2023/04/18 05:07:30;;;;;;;8.25;7.07;;;14.00;64.80;;;;;;4193048;28;20051;-64
2023/04/18 05:10:11;;;;;;;8.25;7.10;;;14.00;64.80;;;;;;4193052;28;20059;-64
2023/04/18 05:12:54;;;;;;;8.23;7.30;;;14.00;65.00;;;;;;4191847;28;20055;-64
2023/04/18 05:15:34;;;;;;;9.07;6.55;;;14.00;65.00;;;;;;4193272;28;20075;-64
2023/04/18 05:18:15;;;;;;;9.50;7.22;;;14.00;64.90;;;;;;4193026;28;20055;-69
2023/04/18 05:20:56;;;;;;;7.53;6.70;;;14.00;64.70;;;;;;4191292;28;20186;-69
2023/04/18 05:23:37;;;;;;;8.43;7.07;;;14.00;65.00;;;;;;4192011;28;20174;-69
2023/04/18 05:26:18;;;;;;;8.65;7.65;;;13.90;65.70;;;;;;4193161;28;20078;-69
2023/04/18 05:29:00;;;;;;;9.35;7.03;;;14.00;65.80;;;;;;4192463;28;20085;-70
2023/04/18 05:31:41;;;;;;;9.63;7.72;;;14.00;65.30;;;;;;4176212;28;20411;-68
2023/04/18 05:34:22;;;;;;;10.57;7.43;;;14.00;65.60;;;;;;4175205;28;20565;-69
2023/04/18 05:37:02;;;;;;;8.85;7.60;;;14.00;65.20;;;;;;4188256;28;20286;-69
2023/04/18 05:39:43;;;;;;;8.88;7.97;;;14.00;65.20;;;;;;4176279;28;20052;-69
2023/04/18 05:42:24;;;;;;;9.43;7.68;;;14.00;65.90;;;;;;4176129;28;20388;-70
2023/04/18 05:45:08;;;;;;;8.57;7.63;;;14.00;66.20;;;;;;4176179;28;20052;-68
2023/04/18 05:47:49;;;;;;;8.07;7.32;;;14.00;65.70;;;;;;4180968;28;20051;-69
2023/04/18 05:50:30;;;;;;;9.93;8.40;;;14.10;65.60;;;;;;4192651;28;20552;-69
2023/04/18 05:53:11;;;;;;;9.65;7.85;;;14.10;67.00;;;;;;4192413;28;20174;-67
2023/04/18 05:55:52;;;;;;;9.50;8.55;;;14.10;65.90;;;;;;4192091;28;20093;-69
2023/04/18 05:58:33;;;;;;;9.40;7.30;;;14.10;66.30;;;;;;4176714;28;20494;-69
2023/04/18 06:01:17;;;;;;;12.20;8.07;;;14.10;65.80;;;;;;4192165;28;20046;-70
2023/04/18 06:03:58;;;;;;;9.07;7.38;;;14.10;64.40;;;;;;4190857;28;20051;-69
2023/04/18 06:06:39;;;;;;;7.78;6.88;;;14.10;64.30;;;;;;4191168;28;20533;-67
2023/04/18 06:09:19;;;;;;;10.75;7.53;;;14.10;64.40;;;;;;4192186;28;20576;-69
2023/04/18 06:12:01;;;;;;;10.38;7.20;;;14.10;64.30;;;;;;4192417;28;20072;-68
2023/04/18 06:14:43;;;;;;;9.20;8.07;;;14.10;64.30;;;;;;4192103;28;20080;-68
2023/04/18 06:17:25;;;;;;;8.50;7.70;;;14.10;63.50;;;;;;4174546;28;20063;-69
2023/04/18 06:20:07;;;;;;;8.77;7.75;;;14.10;62.60;;;;;;4189633;28;20055;-68
2023/04/18 06:22:47;;;;;;;7.93;7.13;;;14.20;62.40;;;;;;4191430;28;20178;-68
2023/04/18 06:25:28;;;;;;;9.93;7.65;;;14.20;62.20;;;;;;4191115;28;20113;-67
2023/04/18 06:28:09;;;;;;;11.10;7.33;;;14.20;64.30;;;;;;4190881;28;20097;-67
2023/04/18 06:30:50;;;;;;;9.82;7.68;;;14.30;64.70;;;;;;4192140;28;20544;-67
2023/04/18 06:33:34;;;;;;;10.80;7.35;;;14.30;62.20;;;;;;4190857;28;20052;-67
2023/04/18 06:36:15;;;;;;;10.07;7.47;;;14.40;61.80;;;;;;4191895;28;20392;-67
2023/04/18 06:38:56;;;;;;;9.33;7.47;;;14.40;62.10;;;;;;4192338;28;20059;-67
2023/04/18 06:41:36;;;;;;;8.65;7.75;;;14.50;62.40;;;;;;4175560;28;20572;-67
2023/04/18 06:44:17;;;;;;;10.68;7.68;;;14.50;61.10;;;;;;4175253;28;20112;-67
2023/04/18 06:46:58;;;;;;;8.40;7.53;;;14.50;60.70;;;;;;4170768;28;20102;-67
2023/04/18 06:49:40;;;;;;;11.55;8.05;;;14.50;61.40;;;;;;4175744;28;20118;-62
2023/04/18 06:52:21;;;;;;;8.55;6.85;;;14.60;60.70;;;;;;4182854;28;20066;-66
2023/04/18 06:55:02;;;;;;;8.70;7.80;;;14.60;60.50;;;;;;4176056;28;20131;-67
2023/04/18 06:57:43;;;;;;;8.02;7.15;;;14.60;59.70;;;;;;4182312;28;20059;-67
2023/04/18 07:00:24;;;;;;;8.40;7.60;;;14.60;59.40;;;;;;4178714;28;20082;-67
2023/04/18 07:03:08;;;;;;;6.33;5.73;;;14.60;59.30;;;;;;4181043;28;20131;-67
2023/04/18 07:05:54;;;;;;;10.43;7.93;;;14.70;58.60;;;;;;4173328;28;20055;-66
2023/04/18 07:08:35;;;;;;;9.63;8.45;;;14.70;58.10;;;;;;4187695;28;20187;-67
2023/04/18 07:11:17;;;;;;;8.23;7.47;;;14.70;58.70;;;;;;4183983;28;20051;-66
2023/04/18 07:13:58;;;;;;;10.15;8.15;;;14.70;58.40;;;;;;4185120;28;20179;-66
2023/04/18 07:16:39;;;;;;;12.93;8.60;;;14.70;58.00;;;;;;4175278;28;20068;-67
2023/04/18 07:19:20;;;;;;;8.93;7.80;;;14.70;58.10;;;;;;4182634;28;20055;-67
2023/04/18 07:22:02;;;;;;;8.98;8.07;;;14.80;58.90;;;;;;4189179;28;20194;-68
2023/04/18 07:24:43;;;;;;;9.48;8.23;;;14.80;57.10;;;;;;4176783;28;20064;-67
2023/04/18 07:27:24;;;;;;;9.45;8.48;;;14.80;57.90;;;;;;4176611;28;20060;-67
2023/04/18 07:30:07;;;;;;;8.52;7.22;;;14.90;58.50;;;;;;4177148;28;20055;-67
2023/04/18 07:32:49;;;;;;;9.02;7.72;;;14.80;57.80;;;;;;4176649;28;20488;-67
2023/04/18 07:35:30;;;;;;;9.88;8.80;;;14.90;57.60;;;;;;4171397;28;20192;-64
2023/04/18 07:38:13;;;;;;;;;;;14.90;57.60;;;;;;4177170;28;20183;-69
2023/04/18 07:40:57;;;;;;;9.38;7.43;;;14.90;57.30;;;;;;4184497;28;20440;-69
2023/04/18 07:43:39;;;;;;;10.02;8.10;;;15.00;57.60;;;;;;4180154;28;20051;-69
2023/04/18 07:46:20;;;;;;;9.65;8.50;;;15.00;57.20;;;;;;4175666;28;20067;-68
2023/04/18 07:49:02;;;;;;;10.45;7.85;;;15.00;56.60;;;;;;4181341;28;20051;-69
2023/04/18 07:51:43;;;;;;;13.27;8.25;;;15.00;56.70;;;;;;4183847;28;20408;-68
2023/04/18 07:54:25;;;;;;;9.67;8.67;;;15.10;56.90;;;;;;4178625;28;20106;-69
2023/04/18 07:57:06;;;;;;;12.25;8.45;;;15.10;56.00;;;;;;4177061;28;20063;-68
2023/04/18 07:59:47;;;;;;;9.73;8.48;;;15.10;56.80;;;;;;4181311;28;20111;-69
2023/04/18 08:02:28;;;;;;;10.35;7.85;;;15.10;56.00;;;;;;4176422;28;20052;-69
2023/04/18 08:05:09;;;;;;;9.13;8.05;;;15.10;55.70;;;;;;4179342;28;20055;-69
2023/04/18 08:07:51;;;;;;;10.52;7.75;;;15.10;55.70;;;;;;4176468;28;20060;-70
2023/04/18 08:10:34;;;;;;;10.02;7.97;;;15.10;55.10;;;;;;4177076;28;20052;-70
2023/04/18 08:13:16;;;;;;;9.63;8.13;;;15.20;55.40;;;;;;4177809;28;20064;-70
2023/04/18 08:15:58;;;;;;;11.38;8.00;;;15.20;55.90;;;;;;4185562;28;20454;-69
2023/04/18 08:18:39;;;;;;;;;;;15.20;55.10;;;;;;4185205;28;20156;-69
2023/04/18 08:21:20;;;;;;;9.50;8.13;;;15.20;55.30;;;;;;4190774;28;19932;-70
2023/04/18 08:24:01;;;;;;;9.00;8.20;;;15.30;55.80;;;;;;4179441;28;20191;-68
2023/04/18 08:26:43;;;;;;;10.97;8.07;;;15.30;56.40;;;;;;4179715;28;20637;-68
2023/04/18 08:29:24;;;;;;;9.90;8.10;;;15.30;55.30;;;;;;4175194;28;20075;-68
2023/04/18 08:32:07;;;;;;;10.10;8.15;;;15.30;55.30;;;;;;4178775;28;20056;-68
2023/04/18 08:34:47;;;;;;;10.95;8.30;;;15.30;55.40;;;;;;4175996;28;20107;-68
2023/04/18 08:37:29;;;;;;;9.95;8.30;;;15.40;55.20;;;;;;4183023;28;20182;-69
2023/04/18 08:40:10;;;;;;;9.18;7.88;;;15.40;55.50;;;;;;4182342;28;20187;-68
2023/04/18 08:42:54;;;;;;;10.02;8.48;;;15.40;55.60;;;;;;4182772;28;20044;-68
2023/04/18 08:45:35;;;;;;;11.25;8.63;;;15.50;54.60;;;;;;4182690;28;20056;-68
2023/04/18 08:48:17;;;;;;;10.82;7.65;;;15.50;54.90;;;;;;4185144;28;20096;-69
2023/04/18 08:50:58;;;;;;;;;;;15.50;55.10;;;;;;4180993;28;20075;-70
2023/04/18 08:53:40;;;;;;;8.73;6.72;;;15.50;55.70;;;;;;4190117;28;20041;-70
2023/04/18 08:56:24;;;;;;;10.60;8.82;;;15.50;54.50;;;;;;4182111;28;20055;-69
2023/04/18 08:59:08;;;;;;;10.50;8.13;;;15.50;54.10;;;;;;4183988;28;20552;-71
2023/04/18 09:01:55;;;;;;;8.80;7.95;;;15.50;54.70;;;;;;4184597;28;20044;-68
2023/04/18 09:04:37;;;;;;;8.52;7.72;;;15.50;54.60;;;;;;4185445;28;20048;-68
2023/04/18 09:07:19;;;;;;;10.15;7.57;;;15.50;53.90;;;;;;4174590;28;20106;-68
2023/04/18 09:10:01;;;;;;;8.95;7.80;;;15.60;54.10;;;;;;4178213;28;20498;-69
2023/04/18 09:12:43;;;;;;;9.88;7.72;;;15.60;53.80;;;;;;4179721;28;20122;-67
2023/04/18 09:15:27;;;;;;;8.40;7.57;;;15.60;54.50;;;;;;4176613;28;20051;-68
2023/04/18 09:18:10;;;;;;;9.35;8.45;;;15.60;54.30;;;;;;4175832;28;20127;-70
2023/04/18 09:20:52;;;;;;;9.15;7.78;;;15.60;54.80;;;;;;4186331;28;20294;-69
2023/04/18 09:23:32;;;;;;;10.90;7.63;;;15.60;54.70;;;;;;4185157;28;20052;-69
2023/04/18 09:26:24;;;;;;;8.45;7.50;;;15.70;55.40;;;;;;4188055;28;20055;-70
2023/04/18 09:29:05;;;;;;;8.90;7.60;;;15.70;54.80;;;;;;4176452;28;20051;-66
2023/04/18 09:32:02;;;;;;;9.75;8.23;;;15.70;55.50;;;;;;4187955;28;21018;-65
2023/04/18 09:34:43;;;;;;;9.85;8.10;;;15.80;54.70;;;;;;4182834;28;20071;-66
2023/04/18 09:37:25;;;;;;;9.63;8.65;;;15.80;55.30;;;;;;4185824;28;20055;-66
2023/04/18 09:40:17;;;;;;;8.80;7.90;;;15.90;55.60;;;;;;4178278;28;20051;-66
2023/04/18 09:42:57;;;;;;;10.88;8.10;;;15.90;54.90;;;;;;4190079;28;20085;-66
2023/04/18 09:45:39;;;;;;;9.15;8.20;;;15.90;55.10;;;;;;4190195;28;20113;-66
2023/04/18 09:48:22;;;;;;;9.30;8.07;;;15.90;55.50;;;;;;4178342;28;20056;-66
2023/04/18 09:51:07;;;;;;;7.80;7.00;;;15.90;55.40;;;;;;4178505;28;20403;-66
2023/04/18 09:53:49;;;;;;;8.98;8.07;;;15.90;55.00;;;;;;4186027;28;20141;-65
2023/04/18 09:56:32;;;;;;;7.95;7.15;;;15.90;55.90;;;;;;4175018;28;20506;-66
2023/04/18 09:59:20;;;;;;;7.97;7.05;;;16.00;55.60;;;;;;4176463;28;20060;-65
2023/04/18 10:02:03;;;;;;;8.05;7.20;;;16.00;55.60;;;;;;4182030;28;20074;-66
2023/04/18 10:04:47;;;;;;;7.72;7.03;;;16.00;55.50;;;;;;4179970;28;20475;-65
2023/04/18 10:07:28;;;;;;;7.35;6.65;;;16.00;55.70;;;;;;4178769;28;20060;-66
2023/04/18 10:10:09;;;;;;;8.50;6.70;;;16.00;55.60;;;;;;4179157;28;20071;-66
2023/04/18 10:12:53;;;;;;;9.15;6.90;;;16.00;56.10;;;;;;4184586;28;20051;-66
2023/04/18 10:15:34;;;;;;;7.90;6.88;;;16.00;56.00;;;;;;4180923;28;20101;-65
2023/04/18 10:18:16;;;;;;;7.32;5.90;;;16.00;56.30;;;;;;4180988;28;20060;-65
2023/04/18 10:21:03;;;;;;;8.27;7.25;;;16.00;56.30;;;;;;4180069;28;20406;-65
2023/04/18 10:23:47;;;;;;;7.43;6.57;;;16.00;56.40;;;;;;4186291;28;20062;-65
2023/04/18 10:26:46;;;;;;;7.65;6.95;;;16.00;56.30;;;;;;4177193;28;20051;-65
2023/04/18 10:29:48;;;;;;;7.30;6.53;;;16.00;56.20;;;;;;4179220;28;20059;-66
2023/04/18 10:32:30;;;;;;;8.70;6.63;;;16.00;56.30;;;;;;4183014;28;20451;-66
2023/04/18 10:35:11;;;;;;;7.70;6.55;;;16.10;56.80;;;;;;4174590;28;20174;-66
2023/04/18 10:37:59;;;;;;;7.63;6.20;;;16.00;56.80;;;;;;4183976;28;20055;-66
2023/04/18 10:40:40;;;;;;;7.38;6.60;;;16.10;56.60;;;;;;4177712;28;20110;-65
2023/04/18 10:43:21;;;;;;;7.25;6.53;;;16.10;57.00;;;;;;4187867;28;20055;-65
2023/04/18 10:46:12;;;;;;;7.07;6.40;;;16.10;57.10;;;;;;4178967;28;20071;-66
2023/04/18 10:49:15;;;;;;;7.35;6.68;;;16.10;57.40;;;;;;4173048;28;20399;-66
2023/04/18 10:51:58;;;;;;;7.13;6.38;;;16.10;56.80;;;;;;4177366;28;20052;-66
2023/04/18 10:54:51;;;;;;;8.98;7.05;;;16.10;57.00;;;;;;4178368;28;20507;-66
2023/04/18 10:57:43;;;;;;;6.45;5.90;;;16.10;57.00;;;;;;4176238;28;20713;-65
2023/04/18 11:00:24;;;;;;;7.05;6.35;;;16.10;57.20;;;;;;4182663;28;20048;-65
2023/04/18 11:03:07;;;;;;;7.53;6.82;;;16.20;57.20;;;;;;4188391;28;20070;-65
2023/04/18 11:05:48;;;;;;;7.15;6.38;;;16.20;57.50;;;;;;4191842;28;20063;-65
2023/04/18 11:08:29;;;;;;;9.05;6.13;;;16.10;57.70;;;;;;4190744;28;20071;-65
2023/04/18 11:11:13;;;;;;;6.90;6.20;;;16.10;57.20;;;;;;4187927;28;20067;-65
2023/04/18 11:13:56;;;;;;;5.20;4.80;;;16.10;57.10;;;;;;4178723;28;20051;-66
2023/04/18 11:16:37;;;;;;;6.15;5.60;;;16.10;57.40;;;;;;4191789;28;20126;-64
2023/04/18 11:19:19;;;;;;;;;;;16.10;57.50;;;;;;4182564;28;20048;-64
2023/04/18 11:22:01;;;;;;;6.78;6.18;;;16.10;57.60;;;;;;4176968;28;19935;-65
2023/04/18 11:24:42;;;;;;;9.35;5.60;;;16.10;57.80;;;;;;4177600;28;20083;-65
2023/04/18 11:27:25;;;;;;;6.15;5.65;;;16.10;57.50;;;;;;4182443;28;20514;-65
2023/04/18 11:30:07;;;;;;;4.75;4.20;;;16.10;57.00;;;;;;4178513;28;20117;-65
2023/04/18 11:32:50;;;;;;;5.38;4.88;;;16.10;57.50;;;;;;4177780;28;20083;-65
2023/04/18 11:35:31;;;;;;;5.07;4.57;;;16.20;58.90;;;;;;4175639;28;20217;-65
2023/04/18 11:38:14;;;;;;;4.75;4.32;;;16.20;58.50;;;;;;4176248;28;20145;-65
2023/04/18 11:40:55;;;;;;;5.55;5.05;;;16.20;60.40;;;;;;4175630;28;20074;-65
2023/04/18 11:43:37;;;;;;;4.10;3.60;;;16.20;60.70;;;;;;4186746;28;20070;-64
2023/04/18 11:46:18;;;;;;;3.88;3.58;;;16.30;60.50;;;;;;4187295;28;20179;-65
2023/04/18 11:48:59;;;;;;;4.03;3.35;;;16.30;61.90;;;;;;4184158;28;20133;-65
2023/04/18 11:51:45;;;;;;;3.83;3.42;;;16.30;63.00;;;;;;4182852;28;20407;-64
2023/04/18 11:54:39;;;;;;;3.67;3.38;;;16.30;63.80;;;;;;4179018;28;20191;-64
2023/04/18 11:57:22;;;;;;;3.95;3.38;;;16.30;62.50;;;;;;4173865;28;20130;-63
2023/04/18 12:00:07;;;;;;;4.03;3.80;;;16.40;60.90;;;;;;4181750;28;20064;-64
2023/04/18 12:02:51;;;;;;;4.60;4.20;;;16.40;61.00;;;;;;4182567;28;20064;-65
2023/04/18 12:05:33;;;;;;;4.10;3.80;;;16.40;61.30;;;;;;4175790;28;20106;-64
2023/04/18 12:08:19;;;;;;;4.03;3.72;;;16.40;59.90;;;;;;4175778;28;20111;-64
2023/04/18 12:11:00;;;;;;;4.30;3.67;;;16.40;60.20;;;;;;4180862;28;20052;-65
2023/04/18 12:13:41;;;;;;;4.00;3.63;;;16.40;59.50;;;;;;4188297;28;20051;-65
2023/04/18 12:16:26;;;;;;;4.88;3.88;;;16.40;60.40;;;;;;4177457;28;20185;-64
2023/04/18 12:19:10;;;;;;;3.53;3.33;;;16.40;60.80;;;;;;4174578;28;20044;-65
2023/04/18 12:21:55;;;;;;;4.13;3.83;;;16.40;58.90;;;;;;4175517;28;20067;-64
2023/04/18 12:24:37;;;;;;;3.90;3.70;;;16.40;58.80;;;;;;4187713;28;20502;-63
2023/04/18 12:27:18;;;;;;;4.45;4.18;;;16.30;60.30;;;;;;4182250;28;20055;-63
2023/04/18 12:29:59;;;;;;;4.22;3.92;;;16.40;60.30;;;;;;4178782;28;20060;-64
2023/04/18 12:32:43;;;;;;;4.78;3.97;;;16.40;60.00;;;;;;4182793;28;20064;-64
2023/04/18 12:35:25;;;;;;;4.10;3.80;;;16.40;59.70;;;;;;4180742;28;20522;-64
2023/04/18 12:38:05;;;;;;;4.57;4.22;;;16.40;58.90;;;;;;4178626;28;20129;-64
2023/04/18 12:40:46;;;;;;;4.40;3.95;;;16.40;58.90;;;;;;4179107;28;20103;-65
2023/04/18 12:43:27;;;;;;;4.20;3.80;;;16.30;58.60;;;;;;4174689;28;20190;-64
2023/04/18 12:46:08;;;;;;;5.47;4.22;;;16.30;58.80;;;;;;4174804;28;20123;-64
2023/04/18 12:48:51;;;;;;;5.00;4.60;;;16.30;58.60;;;;;;4175394;28;20044;-64
2023/04/18 12:51:32;;;;;;;4.90;4.47;;;16.30;59.30;;;;;;4178547;28;20060;-64
2023/04/18 12:54:12;;;;;;;4.23;3.83;;;16.20;58.70;;;;;;4183444;28;20044;-64
2023/04/18 12:56:53;;;;;;;4.38;3.92;;;16.20;58.90;;;;;;4186718;28;20048;-64
2023/04/18 12:59:34;;;;;;;4.68;4.38;;;16.30;59.50;;;;;;4176453;28;20052;-64
2023/04/18 13:02:15;;;;;;;5.95;5.30;;;16.20;59.20;;;;;;4174518;28;20055;-64
2023/04/18 13:04:57;;;;;;;4.38;3.95;;;16.20;58.90;;;;;;4174877;28;20117;-64
2023/04/18 13:07:39;;;;;;;5.28;4.88;;;16.20;58.70;;;;;;4190442;28;20457;-64
2023/04/18 13:10:23;;;;;;;5.07;4.57;;;16.20;58.90;;;;;;4187250;28;20125;-64
2023/04/18 13:13:04;;;;;;;5.10;4.65;;;16.20;58.40;;;;;;4174678;28;20055;-64
2023/04/18 13:15:45;;;;;;;5.22;4.72;;;16.20;59.10;;;;;;4182361;28;20093;-64
2023/04/18 13:18:26;;;;;;;5.18;4.78;;;16.20;59.00;;;;;;4183668;28;20055;-64
2023/04/18 13:21:08;;;;;;;4.53;4.13;;;16.20;59.00;;;;;;4174583;28;20048;-65
2023/04/18 13:23:49;;;;;;;4.72;4.43;;;16.20;58.40;;;;;;4181415;28;20059;-65
2023/04/18 13:26:34;;;;;;;5.47;4.43;;;16.20;58.80;;;;;;4174677;28;20049;-65
2023/04/18 13:29:15;;;;;;;4.88;4.50;;;16.20;58.90;;;;;;4174563;28;20610;-65
2023/04/18 13:31:56;;;;;;;4.57;4.18;;;16.20;58.80;;;;;;4185771;28;20490;-64
2023/04/18 13:34:41;;;;;;;5.67;5.23;;;16.30;59.00;;;;;;4181328;28;21464;-64
2023/04/18 13:37:24;;;;;;;4.80;4.50;;;16.30;58.50;;;;;;4174739;28;20055;-63
2023/04/18 13:40:05;;;;;;;6.57;5.55;;;16.30;58.70;;;;;;4177839;28;20055;-63
2023/04/18 13:42:47;;;;;;;6.07;5.55;;;16.30;58.40;;;;;;4181809;28;20055;-64
2023/04/18 13:45:27;;;;;;;6.77;5.80;;;16.30;58.50;;;;;;4174413;28;20064;-64
2023/04/18 13:48:08;;;;;;;6.47;5.88;;;16.30;58.80;;;;;;4181128;28;20298;-64
2023/04/18 13:50:50;;;;;;;7.03;6.32;;;16.30;58.60;;;;;;4174312;28;20043;-64
2023/04/18 13:53:32;;;;;;;8.85;6.53;;;16.30;58.90;;;;;;4174609;28;20067;-64
2023/04/18 13:56:14;;;;;;;8.60;6.97;;;16.30;59.00;;;;;;4179018;28;20125;-64
2023/04/18 13:58:55;;;;;;;8.68;7.72;;;16.30;59.00;;;;;;4181681;28;20059;-64
2023/04/18 14:01:36;;;;;;;9.23;8.20;;;16.40;58.90;;;;;;4176819;28;20081;-64
2023/04/18 14:04:17;;;;;;;8.30;7.50;;;16.40;58.90;;;;;;4184097;28;20163;-65
2023/04/18 14:06:58;;;;;;;8.65;7.57;;;16.40;59.00;;;;;;4180933;28;20072;-65